Pagrindinis puslapis
METAR-TAF:

METAR-TAF

Oro uostai :

Ušuaja, Argentina

platuma: 54-48S, ilguma: 068-19W, Aukštis: 16 m

Dabartinis oras

Ataskaita buvo paskelbta 37 minutes, ne 11:00 UTC
Ramus vėjas
Temperatūra 6°C
Drėgmė 75%
Slėgis 1015 hPa
Matomumas 10 km arba daugiau
nėra debesų žemiau 1500 m ir nėra kamuolinių lietaus debesų

METAR: SAWH 161100Z 00000KT CAVOK 06/02 Q1015

Laikas: 08:37 (11:37 UTC)

Prognozė

Ataskaita buvo paskelbta 6 valandos ir 37 minutes, ne 05:00 UTC
Prognozė galioja nuo 16 metu 06 UTC su 17 metu 06 UTC
Vėjas 5 kt iš Šiaurės
Matomumas 10 km arba daugiau
nėra debesų žemiau 1500 m ir nėra kamuolinių lietaus debesų
Tapsmas
nuo 16 metu 07 UTC su 16 metu 09 UTC
Vėjas 10 kt iš Šiaurės su gūsio iki 25 kt
Tikimybė 30%
nuo 16 metu 09 UTC su 16 metu 12 UTC
Išsisklaidę debesys ne aukštis 400 ft
Su prošvaistėmis ne aukštis 800 ft

TAF: SAWH 160500Z 1606/1706 36005KT CAVOK TX12/1618Z TN02/1610Z BECMG 1607/1609 36010G25KT PROB30 1609/1612 SCT004 BKN008

Orai ataskaitas ir orų prognozės (METAR, TAF).

turimą stotys yra geltonos ir raudonos taškus žemėlapyje.

Perkelti pele per norėdami pamatyti stoties vardą.

Tada spustelėkite, norėdami matyti oro stebėjimo ir prognozės.

Norėdami pakeisti žemėlapį: spustelėkite ant žalios mygtukų su juodo kryžiaus žemyn,; žalią mygtuką su brūkšneliu, jei norite nutolinti; arba žalių rodyklių gretimoms žemėlapius.


METAR-TAF: